Terminal Aerodrome Forecast
Issued by NWS

Home | Current Version | Previous Version | Graphics & Text | Print | Product List | Glossary On
Versions: 1 2 3 4 5 6 7 8 9 10 11 12 13 14 15 16
342
FTUS43 KMPX 221720
TAFAXN
TAF
KAXN 221720Z 2218/2318 18010KT P6SM FEW200
     FM221900 19012G19KT P6SM FEW200
     FM230000 19006KT P6SM SCT200
     FM231500 22006KT P6SM SCT250=

USA.gov is the U.S. government's official web portal to all federal, state and local government web resources and services.